DW4989 Weather Reports


Display with metric or nautical units.
time (UTC)temp
F
wind
direction
speed
MPH
gust
MPH
rain 1hr
in
rain 24hr
in
rain mn
in
humidity
%
barometer
mb
20190721233134 58 168 0.0 4.0 0.07 0.34 0.34 90 1026.5
20190721231748 57 38 6.0 13.0 0.08 0.34 0.34 87 1026.2
20190721230148 58 28 7.0 14.0 0.07 0.33 0.33 90 1026.1
20190721224643 59 64 8.0 18.0 0.05 0.31 0.31 88 1025.8
20190721223104 64 34 9.0 15.0 0.01 0.27 0.27 84 1025.6
20190721221617 66 319 2.0 10.0 0.00 0.26 0.26 89 1025.5
20190721220123 66 319 0.0 6.0 0.00 0.26 0.26 89 1025.3
20190721214602 66 41 2.0 7.0 0.00 0.26 0.26 88 1025.2
20190721213057 66 78 4.0 10.0 0.00 0.26 0.26 89 1024.8
20190721211620 66 64 3.0 6.0 0.00 0.26 0.26 91 1024.7
20190721210055 66 98 0.0 4.0 0.00 0.26 0.26 91 1024.4
20190721204556 65 70 4.0 8.0 0.00 0.26 0.26 91 1024.2
20190721203057 65 58 2.0 8.0 0.00 0.26 0.26 93 1024.3
20190721201552 65 19 2.0 7.0 0.00 0.26 0.26 94 1024.3
20190721200149 65 56 2.0 4.0 0.00 0.26 0.26 93 1024.5
20190721194545 65 65 1.0 4.0 0.00 0.26 0.26 92 1024.4
20190721193121 66 126 0.0 3.0 0.00 0.26 0.26 93 1024.2
20190721191559 65 119 3.0 6.0 0.01 0.26 0.26 92 1023.9
20190721190051 66 96 3.0 7.0 0.01 0.26 0.26 92 1024.3
20190721184615 66 115 2.0 3.0 0.02 0.26 0.26 93 1023.9
20190721183112 66 179 0.0 4.0 0.03 0.26 0.26 93 1023.9
20190721181613 65 110 1.0 7.0 0.02 0.25 0.25 93 1023.9
20190721180055 66 142 3.0 5.0 0.12 0.25 0.25 92 1023.9
20190721174601 66 126 4.0 7.0 0.19 0.24 0.24 92 1023.5
20190721173022 66 149 2.0 6.0 0.23 0.23 0.23 93 1023.3
20190721171523 66 22 0.0 4.0 0.23 0.23 0.23 93 1022.9
20190721170044 66 76 6.0 11.0 0.11 0.11 0.11 92 1022.4
20190721164529 66 76 2.0 3.0 0.05 0.05 0.05 89 1022.8
20190721163044 67 240 0.0 6.0 0.00 0.00 0.00 87 1022.7
20190721161537 67 338 0.0 3.0 0.00 0.00 0.00 88 1022.1
20190721160014 67 81 1.0 14.0 0.00 0.00 0.00 87 1021.6
20190721154520 67 47 4.0 12.0 0.00 0.00 0.00 85 1021.1
20190721153004 67 41 7.0 23.0 0.00 0.00 0.00 86 1020.4
20190721151506 68 35 8.0 16.0 0.00 0.00 0.00 86 1020.2
20190721150001 68 70 6.0 14.0 0.00 0.00 0.00 86 1019.9
20190721144657 69 44 5.0 9.0 0.00 0.00 0.00 84 1020.1
20190721141655 68 66 4.0 9.0 0.00 0.00 0.00 85 1019.8
20190721140159 68 71 5.0 8.0 0.00 0.00 0.00 87 1019.9
20190721134621 67 110 3.0 10.0 0.00 0.00 0.00 89 1019.8
20190721133146 66 80 5.0 11.0 0.00 0.00 0.00 90 1019.8
20190721131649 66 76 3.0 8.0 0.00 0.00 0.00 91 1019.9
20190721130210 65 88 1.0 3.0 0.00 0.00 0.00 92 1020.3
20190721124647 65 83 0.0 3.0 0.00 0.00 0.00 93 1020.6
20190721123149 65 87 1.0 3.0 0.00 0.00 0.00 94 1020.5
20190721121603 64 110 2.0 4.0 0.00 0.00 0.00 94 1020.4
20190721120134 64 71 3.0 4.0 0.00 0.00 0.00 93 1020.2
20190721114623 64 84 2.0 4.0 0.00 0.00 0.00 93 1020.2
20190721113127 64 73 1.0 3.0 0.00 0.00 0.00 93 1020.9
20190721111601 64 84 0.0 0.0 0.00 0.00 0.00 93 1020.8
20190721110148 65 112 0.0 0.0 0.00 0.00 0.00 92 1020.6
20190721104551 65 135 0.0 1.0 0.00 0.00 0.00 92 1020.8
20190721103058 65 113 0.0 4.0 0.00 0.00 0.00 91 1020.7
20190721101553 65 105 2.0 5.0 0.00 0.00 0.00 91 1020.3
20190721100138 65 88 3.0 7.0 0.00 0.00 0.00 91 1019.6
20190721094539 66 71 1.0 3.0 0.00 0.00 0.00 90 1019.0
20190721093043 66 87 2.0 3.0 0.00 0.00 0.00 90 1019.2
20190721091542 66 79 0.0 3.0 0.00 0.00 0.00 90 1018.7
20190721090151 66 52 1.0 4.0 0.00 0.00 0.00 90 1018.2
20190721084549 66 69 1.0 6.0 0.00 0.00 0.00 90 1018.1
20190721083048 66 49 4.0 12.0 0.00 0.00 0.00 90 1017.8
20190721081538 66 54 1.0 11.0 0.00 0.00 0.00 89 1018.2
20190721080020 66 40 8.0 14.0 0.00 0.00 0.00 89 1017.5
20190721074526 66 16 9.0 13.0 0.00 0.00 0.00 88 1017.4
20190721073017 66 323 0.0 3.0 0.00 0.00 0.00 87 1017.4
20190721071525 66 99 1.0 6.0 0.00 0.00 0.00 87 1017.7
20190721070021 66 78 2.0 7.0 0.00 0.00 0.00 87 1017.7
20190721064516 66 86 1.0 7.0 0.00 0.00 0.00 87 1018.1
20190721063023 66 75 3.0 6.0 0.00 0.00 0.00 87 1018.1
20190721061721 66 65 2.0 6.0 0.00 0.00 0.00 87 1018.2
20190721060344 66 59 2.0 6.0 0.00 0.00 0.00 87 1018.4
20190721054703 66 71 3.0 7.0 0.00 0.00 0.00 88 1018.3
20190721053157 66 82 1.0 3.0 0.00 0.00 0.00 88 1018.3
20190721051703 66 61 1.0 3.0 0.00 0.00 0.00 88 1018.5
20190721050114 67 71 1.0 3.0 0.00 0.00 0.00 87 1018.5
20190721044625 67 79 0.0 0.0 0.00 0.00 0.00 87 1018.6
20190721043210 67 73 1.0 2.0 0.00 0.00 0.00 88 1018.7
20190721041624 66 321 0.0 0.0 0.00 0.00 0.00 89 1018.9
20190721040054 66 309 0.0 0.0 0.00 0.00 0.00 87 1018.8
20190721034639 66 309 0.0 0.0 0.00 0.00 0.00 86 1018.5
20190721033130 67 309 0.0 0.0 0.00 0.00 0.00 84 1018.3
20190721031552 69 343 0.0 0.0 0.00 0.00 0.00 83 1018.3
20190721030048 69 5 0.0 2.0 0.00 0.00 0.00 80 1017.9
20190721024606 70 11 1.0 3.0 0.00 0.00 0.00 79 1017.4
20190721023048 70 17 2.0 4.0 0.00 0.00 0.00 79 1017.0
20190721021533 71 30 2.0 5.0 0.00 0.00 0.00 78 1017.1
20190721020014 72 32 0.0 4.0 0.00 0.00 0.00 75 1017.1
20190721014512 74 71 0.0 1.0 0.00 0.00 0.00 71 1017.3
20190721013007 74 40 1.0 5.0 0.00 0.00 0.00 69 1017.3
20190721011502 75 49 4.0 9.0 0.00 0.00 0.00 70 1017.3
20190721010145 75 24 0.0 6.0 0.00 0.00 0.00 72 1017.2
20190721004726 75 49 6.0 12.0 0.00 0.00 0.00 71 1017.1
20190721003206 76 49 4.0 10.0 0.00 0.00 0.00 70 1017.0
20190721001635 76 53 7.0 13.0 0.00 0.00 0.00 68 1016.8
20190721000134 76 75 6.0 14.0 0.00 0.00 0.00 67 1017.0
20190720234645 76 60 10.0 13.0 0.00 0.00 0.00 66 1016.9